Terminal Aerodrome Forecast
Issued by NWS

Home | Current Version | Previous Version | Text Only | Print | Product List | Glossary On
Versions: 1 2 3 4 5 6 7 8 9 10 11 12 13 14
668
FTUS46 KSEW 081726
TAFBLI
TAF
KBLI 081726Z 0818/0918 34006KT P6SM SCT250
     FM090500 04005KT P6SM SCT250=

USA.gov is the U.S. government's official web portal to all federal, state and local government web resources and services.